Portada
METAR-TAF:

METAR-TAF

Aeropuertos :

Ghriss, Argelia

latitud: 35-12N, longitud: 000-08E, altitud: 514 m

Observación

El informe se hizo hace 48 minutos, a las 08:00 UTC
Viento calma
Temperatura 24°C
Humedad 69%
Presión 1019 hPa
Visibilidad 10 km o más
sin nubes por debajo de 1500 m y sin presencia de cumulonimbus.

METAR: DAOV 180800Z 00000KT CAVOK 24/18 Q1019

Hora: 09:48 (08:48 UTC)

Pronóstico

El informe se hizo hace 3 horas y 48 minutos, a las 05:00 UTC
Pronóstico válido del 18 a las 06 UTC al 18 a las 15 UTC
Viento 2 kt con dirección variable
Visibilidad 10 km o más
Escasas nubes a una altura de 2300 ft
Evolucionando progresivamente
del 18 a las 10 UTC al 18 a las 12 UTC
Viento 10 kt del este-noreste

TAF: DAOV 180500Z 1806/1815 VRB02KT 9999 FEW023 BECMG 1810/1812 06010KT

Observaciones y pronósticos meteorológicos de más de 4000 aeropuertos (mensajes METAR y TAF).

Los puntos amarillos y rojos representan las estaciones disponibles.

Ponga el ratón en el punto deseado para ver el nombre de la estación.

Haga clic para ver las observaciones y los pronósticos meteorológicos.

Para cambiar el mapa : haga clic en los botones verdes con una cruz de color negro para hacer un zoom, en el botón verde con un guión para alejar o en las flechas verdes para mapas adyacentes.


METAR-TAF: